GOOY

Léopold Sédar Senghor International Airport

Airport
ICAO code
GOOY
IATA Code
DKR
Summary
ICAO Region
AFI
ICAO Territory
Location

Yoff, Dakar

Serving
Dakar
Elevation
85 ft
Coordinates
14° 44' 22" N , 17° 29' 24" W
KCC
Airport BS
Bird Strike
Metar
Observation
GOOY 281100Z 36010KT CAVOK 28/20 Q1010
Station
Dakar / Yoff
Date/Time
2022-11-28 11:00:00
Wind direction
360°
Wind speed
10 kts
Lowest cloud amount
clouds and visibility OK
Temperature
28°C
Dew point
20°C
Humidity
61%
QNH
1010 hPa
Weather condition
n/a

International airport serving the city of Dakar, capital of Senegal.

Climatology

Hot, semi-arid/Steppe climate (Köppen climate classification BSh) - hot, sometimes extremely hot summers and mild to warm winters, with low annual precipitation.

Runways

Designator Length Width Surface Rops
3/21 1500 30 ASP Yes/Yes
18/36 3490 45 ASP Yes/Yes

Airport map

Aerial View

SKYbrary Partners:

Safety knowledge contributed by: